Time;durP1;ratioP1;P1;durP2;ratioP2;P2;SDS_P1;SDS_P2;PMS_P1;PMS_P2;Temp;Humidity;BMP_temperature;BMP_pressure;BME280_temperature;BME280_humidity;BME280_pressure;Samples;Min_cycle;Max_cycle;Signal;HPM_P1;HPM_P2
2022/03/06 00:00:30;;;;;;;24.48;13.02;;;;;;;-2.40;60.54;96761.47;2068006;28;20241;-65
2022/03/06 00:01:31;;;;;;;26.90;12.55;;;;;;;-2.46;60.70;96764.13;2068184;28;20730;-64
2022/03/06 00:02:34;;;;;;;29.85;13.07;;;;;;;-2.47;60.37;96754.72;2068772;28;20199;-65
2022/03/06 00:03:36;;;;;;;22.02;12.77;;;;;;;-2.46;60.03;96762.41;2066343;28;20229;-65
2022/03/06 00:04:38;;;;;;;27.75;13.13;;;;;;;-2.37;60.01;96756.31;2068105;28;20199;-64
2022/03/06 00:05:39;;;;;;;24.35;12.20;;;;;;;-2.35;60.13;96764.81;2067399;28;20248;-64
2022/03/06 00:06:41;;;;;;;24.48;11.60;;;;;;;-2.36;60.31;96764.84;2068930;28;20201;-65
2022/03/06 00:07:42;;;;;;;29.98;13.52;;;;;;;-2.34;60.16;96761.38;2068216;28;20210;-64
2022/03/06 00:08:44;;;;;;;27.52;12.38;;;;;;;-2.48;60.32;96765.88;2067418;28;20297;-64
2022/03/06 00:09:45;;;;;;;30.60;14.23;;;;;;;-2.24;59.93;96755.22;2067053;28;20250;-64
2022/03/06 00:10:48;;;;;;;28.63;13.93;;;;;;;-2.32;59.91;96764.75;2067204;28;20198;-64
2022/03/06 00:11:51;;;;;;;23.98;13.02;;;;;;;-2.44;60.61;96762.38;2069263;28;20639;-64
2022/03/06 00:12:52;;;;;;;26.45;13.10;;;;;;;-2.49;61.20;96767.59;2067708;28;20651;-64
2022/03/06 00:13:54;;;;;;;22.95;11.50;;;;;;;-2.66;61.65;96760.13;2066209;28;20198;-65
2022/03/06 00:14:55;;;;;;;26.33;11.75;;;;;;;-2.75;61.69;96755.13;2067827;28;20210;-64
2022/03/06 00:15:57;;;;;;;30.13;13.60;;;;;;;-2.72;61.87;96762.78;2067982;28;20222;-64
2022/03/06 00:16:58;;;;;;;23.88;12.20;;;;;;;-2.54;61.29;96759.09;2070197;28;20209;-64
2022/03/06 00:18:00;;;;;;;26.67;11.75;;;;;;;-2.41;60.64;96763.19;2066630;28;20202;-65
2022/03/06 00:19:02;;;;;;;26.23;12.40;;;;;;;-2.53;60.72;96762.50;2065890;28;20250;-64
2022/03/06 00:20:08;;;;;;;33.97;12.43;;;;;;;-2.56;61.16;96757.44;2067935;28;20221;-64
2022/03/06 00:21:12;;;;;;;25.40;12.63;;;;;;;-2.60;60.98;96760.03;2068097;28;20208;-64
2022/03/06 00:22:13;;;;;;;27.05;12.15;;;;;;;-2.72;61.50;96762.78;2069621;28;20201;-64
2022/03/06 00:23:15;;;;;;;29.42;12.75;;;;;;;-2.69;62.01;96764.44;2065882;28;20205;-64
2022/03/06 00:24:16;;;;;;;23.50;11.38;;;;;;;-2.63;61.50;96754.09;2069319;28;20210;-64
2022/03/06 00:25:18;;;;;;;23.55;11.93;;;;;;;-2.62;61.38;96746.38;2068257;28;20225;-65
2022/03/06 00:26:19;;;;;;;30.95;11.80;;;;;;;-2.56;61.57;96762.56;2067785;28;20226;-65
2022/03/06 00:27:20;;;;;;;26.83;12.63;;;;;;;-2.62;61.57;96755.81;2066040;28;20203;-64
2022/03/06 00:28:22;;;;;;;26.23;13.23;;;;;;;-2.73;61.59;96755.94;2067896;28;20205;-65
2022/03/06 00:29:23;;;;;;;25.80;12.60;;;;;;;-2.75;62.08;96752.56;2066980;28;20198;-65
2022/03/06 00:30:25;;;;;;;30.38;13.18;;;;;;;-2.70;61.84;96749.94;2070043;28;20229;-64
2022/03/06 00:31:27;;;;;;;21.67;10.57;;;;;;;-2.63;61.55;96752.41;2065743;28;20609;-64
2022/03/06 00:32:28;;;;;;;24.55;12.45;;;;;;;-2.86;62.90;96756.97;2069098;28;20190;-64
2022/03/06 00:33:29;;;;;;;26.00;12.13;;;;;;;-2.91;62.90;96753.63;2068572;28;20239;-64
2022/03/06 00:34:32;;;;;;;21.63;10.70;;;;;;;-2.89;62.80;96757.88;2069512;28;20285;-65
2022/03/06 00:35:34;;;;;;;26.70;12.93;;;;;;;-2.72;62.57;96749.97;2066244;28;20226;-64
2022/03/06 00:36:37;;;;;;;25.75;12.27;;;;;;;-2.73;62.12;96750.81;2066657;28;20203;-64
2022/03/06 00:37:38;;;;;;;27.25;13.18;;;;;;;-2.70;62.12;96753.34;2067898;28;20202;-64
2022/03/06 00:38:40;;;;;;;31.58;11.90;;;;;;;-2.75;62.05;96752.56;2066506;28;20638;-64
2022/03/06 00:39:43;;;;;;;25.92;12.48;;;;;;;-2.71;61.80;96755.94;2065453;28;20209;-64
2022/03/06 00:40:45;;;;;;;25.40;12.32;;;;;;;-2.68;61.57;96754.16;2066500;28;20525;-64
2022/03/06 00:41:47;;;;;;;25.88;12.63;;;;;;;-2.63;61.61;96746.41;2069963;28;20198;-64
2022/03/06 00:42:48;;;;;;;21.80;10.25;;;;;;;-2.71;61.86;96753.34;2068090;28;20210;-64
2022/03/06 00:43:50;;;;;;;26.40;11.57;;;;;;;-2.62;61.69;96745.53;2066625;28;20577;-64
2022/03/06 00:44:53;;;;;;;24.20;11.45;;;;;;;-2.71;61.93;96751.63;2066121;28;20822;-63
2022/03/06 00:45:55;;;;;;;26.10;11.43;;;;;;;-2.81;62.19;96750.06;2065835;28;20560;-64
2022/03/06 00:46:56;;;;;;;22.70;11.35;;;;;;;-2.81;61.98;96750.06;2070561;28;20206;-65
2022/03/06 00:47:58;;;;;;;26.80;13.00;;;;;;;-2.91;62.42;96745.94;2070129;28;20198;-64
2022/03/06 00:48:59;;;;;;;24.65;11.43;;;;;;;-2.79;61.86;96753.47;2069323;28;20210;-64
2022/03/06 00:50:02;;;;;;;21.25;10.52;;;;;;;-2.72;61.45;96759.38;2068848;28;20229;-64
2022/03/06 00:51:03;;;;;;;29.73;11.48;;;;;;;-2.84;61.94;96755.25;2069898;28;20261;-64
2022/03/06 00:52:05;;;;;;;22.20;10.38;;;;;;;-2.89;62.06;96750.19;2067726;28;20210;-64
2022/03/06 00:53:07;;;;;;;23.20;11.15;;;;;;;-2.88;61.82;96751.88;2070623;28;20206;-64
2022/03/06 00:54:09;;;;;;;23.80;10.95;;;;;;;-2.87;61.76;96758.69;2067676;28;20287;-65
2022/03/06 00:55:10;;;;;;;21.42;11.45;;;;;;;-2.89;62.03;96755.31;2069386;28;20223;-64
2022/03/06 00:56:12;;;;;;;24.23;11.32;;;;;;;-2.95;61.98;96763.06;2069996;28;20527;-64
2022/03/06 00:57:13;;;;;;;22.27;10.48;;;;;;;-2.93;62.39;96760.50;2066572;28;20803;-64
2022/03/06 00:58:16;;;;;;;20.40;10.10;;;;;;;-2.97;62.54;96753.72;2068157;28;20206;-64
2022/03/06 00:59:17;;;;;;;26.30;12.73;;;;;;;-3.08;62.78;96754.69;2069785;28;20247;-65
2022/03/06 01:00:19;;;;;;;24.25;10.50;;;;;;;-3.03;62.79;96760.59;2069935;28;20230;-64
2022/03/06 01:01:20;;;;;;;26.50;13.95;;;;;;;-3.12;63.45;96754.75;2071109;28;20198;-64
2022/03/06 01:02:22;;;;;;;35.88;11.73;;;;;;;-3.13;63.55;96759.03;2068039;28;20194;-64
2022/03/06 01:03:24;;;;;;;23.00;11.50;;;;;;;-3.19;63.73;96754.00;2071007;28;20241;-65
2022/03/06 01:04:26;;;;;;;25.75;11.18;;;;;;;-3.22;63.23;96759.13;2073670;28;20217;-64
2022/03/06 01:05:28;;;;;;;24.08;11.05;;;;;;;-3.02;62.71;96767.44;2069731;28;20228;-64
2022/03/06 01:06:29;;;;;;;22.33;10.52;;;;;;;-3.06;62.73;96765.78;2069318;28;20198;-65
2022/03/06 01:07:31;;;;;;;26.00;11.20;;;;;;;-3.10;62.93;96756.41;2069347;28;20198;-64
2022/03/06 01:08:33;;;;;;;31.98;12.10;;;;;;;-3.05;62.80;96761.50;2067942;28;20206;-64
2022/03/06 01:09:34;;;;;;;24.23;10.75;;;;;;;-3.14;62.76;96762.44;2069888;28;20237;-64
2022/03/06 01:10:37;;;;;;;22.17;10.57;;;;;;;-3.05;62.94;96764.91;2066751;28;20230;-65
2022/03/06 01:11:39;;;;;;;30.85;11.95;;;;;;;-3.13;62.88;96769.28;2068389;28;20218;-65
2022/03/06 01:12:40;;;;;;;25.20;11.65;;;;;;;-3.06;63.09;96763.22;2070441;28;20198;-65
2022/03/06 01:13:41;;;;;;;26.52;10.65;;;;;;;-2.97;62.38;96763.97;2069495;28;20210;-65
2022/03/06 01:14:43;;;;;;;27.60;8.82;;;;;;;-2.94;62.29;96771.59;2069357;28;20615;-65
2022/03/06 01:15:45;;;;;;;20.30;9.15;;;;;;;-2.90;62.00;96765.56;2069322;28;20220;-65
2022/03/06 01:16:46;;;;;;;26.33;11.30;;;;;;;-2.83;62.01;96767.19;2070982;28;20202;-65
2022/03/06 01:17:48;;;;;;;23.50;10.90;;;;;;;-2.86;62.06;96773.22;2069512;28;20214;-65
2022/03/06 01:18:49;;;;;;;19.50;10.75;;;;;;;-2.87;61.93;96773.22;2071561;28;20665;-65
2022/03/06 01:19:51;;;;;;;24.10;9.70;;;;;;;-3.03;61.97;96758.03;2069242;28;20205;-65
2022/03/06 01:20:52;;;;;;;17.33;9.30;;;;;;;-3.05;62.39;96764.06;2071371;28;20205;-65
2022/03/06 01:21:54;;;;;;;19.35;9.15;;;;;;;-2.96;62.32;96765.66;2066032;28;20195;-65
2022/03/06 01:22:55;;;;;;;18.23;9.00;;;;;;;-2.93;61.87;96768.19;2068670;28;20204;-65
2022/03/06 01:23:57;;;;;;;21.50;9.00;;;;;;;-2.94;62.19;96757.09;2069272;28;20198;-65
2022/03/06 01:24:58;;;;;;;20.48;9.95;;;;;;;-2.89;61.76;96765.56;2068855;28;20215;-65
2022/03/06 01:25:59;;;;;;;23.00;10.27;;;;;;;-2.97;62.24;96771.66;2069506;28;20199;-65
2022/03/06 01:27:01;;;;;;;18.27;9.57;;;;;;;-2.99;61.87;96766.53;2069901;28;20198;-65
2022/03/06 01:28:03;;;;;;;21.40;10.82;;;;;;;-3.00;62.10;96768.28;2068144;28;20224;-65
2022/03/06 01:29:05;;;;;;;22.23;9.20;;;;;;;-3.01;62.11;96769.13;2067795;28;20853;-65
2022/03/06 01:30:08;;;;;;;21.27;9.95;;;;;;;-2.96;62.00;96770.78;2069101;28;20225;-65
2022/03/06 01:31:10;;;;;;;21.98;10.57;;;;;;;-2.91;62.23;96774.16;2067910;28;20207;-65
2022/03/06 01:32:12;;;;;;;23.23;10.65;;;;;;;-2.90;61.92;96775.81;2068727;28;20198;-65
2022/03/06 01:33:13;;;;;;;19.67;10.32;;;;;;;-3.01;62.28;96769.13;2071296;28;20523;-65
2022/03/06 01:34:15;;;;;;;19.70;9.88;;;;;;;-3.04;62.11;96769.19;2069887;28;20680;-65
2022/03/06 01:35:17;;;;;;;26.52;10.13;;;;;;;-3.01;62.37;96768.28;2070940;28;20218;-65
2022/03/06 01:36:18;;;;;;;23.58;9.35;;;;;;;-3.08;62.35;96769.22;2068356;28;20199;-65
2022/03/06 01:37:20;;;;;;;22.55;9.85;;;;;;;-2.94;62.17;96766.47;2069101;28;20201;-65
2022/03/06 01:38:21;;;;;;;23.88;10.05;;;;;;;-2.85;61.49;96771.50;2063555;28;20207;-65
2022/03/06 01:39:23;;;;;;;18.73;10.48;;;;;;;-2.91;61.61;96769.84;2064557;28;20194;-65
2022/03/06 01:40:25;;;;;;;15.57;8.35;;;;;;;-2.84;61.34;96763.78;2068042;28;20229;-65
2022/03/06 01:41:26;;;;;;;21.27;10.18;;;;;;;-2.89;61.60;96767.28;2069579;28;20555;-65
2022/03/06 01:42:28;;;;;;;22.15;10.48;;;;;;;-2.90;61.71;96763.00;2069059;28;20705;-65
2022/03/06 01:43:29;;;;;;;20.63;9.75;;;;;;;-2.83;61.90;96762.06;2068544;28;20198;-65
2022/03/06 01:44:31;;;;;;;21.23;9.68;;;;;;;-2.84;61.65;96763.78;2068326;28;20203;-65
2022/03/06 01:45:33;;;;;;;22.98;10.77;;;;;;;-2.91;61.92;96769.84;2068900;28;20225;-65
2022/03/06 01:46:34;;;;;;;19.98;9.65;;;;;;;-2.78;61.37;96768.00;2068811;28;20202;-65
2022/03/06 01:47:44;;;;;;;23.80;10.38;;;;;;;-2.80;61.01;96768.00;2070369;28;20206;-65
2022/03/06 01:48:45;;;;;;;20.08;9.43;;;;;;;-2.84;61.30;96762.94;2067683;28;20210;-65
2022/03/06 01:49:47;;;;;;;19.23;8.80;;;;;;;-2.88;61.43;96768.97;2067304;28;20199;-64
2022/03/06 01:50:48;;;;;;;18.88;8.88;;;;;;;-2.83;61.52;96756.94;2068152;28;20213;-65
2022/03/06 01:51:50;;;;;;;18.15;9.50;;;;;;;-2.99;61.70;96764.81;2069811;28;20205;-65
2022/03/06 01:52:53;;;;;;;18.20;9.25;;;;;;;-3.04;62.23;96758.94;2071162;28;20212;-65
2022/03/06 01:53:54;;;;;;;20.60;10.02;;;;;;;-3.08;62.11;96749.56;2069907;28;20203;-65
2022/03/06 01:54:56;;;;;;;20.48;9.10;;;;;;;-3.06;62.13;96755.53;2067541;28;20202;-64
2022/03/06 01:55:58;;;;;;;20.80;10.27;;;;;;;-3.01;62.19;96753.75;2069006;28;20198;-65
2022/03/06 01:57:00;;;;;;;20.85;9.50;;;;;;;-3.00;62.20;96750.34;2068172;28;20205;-65
2022/03/06 01:58:04;;;;;;;26.75;10.32;;;;;;;-2.96;62.17;96756.25;2069543;28;20206;-65
2022/03/06 01:59:06;;;;;;;17.23;9.50;;;;;;;-2.98;62.09;96757.97;2068962;28;20198;-65
2022/03/06 02:00:14;;;;;;;21.33;9.68;;;;;;;-3.05;62.60;96757.22;2068594;28;20572;-65
2022/03/06 02:01:15;;;;;;;19.00;9.48;;;;;;;-3.16;63.07;96753.94;2071066;28;20198;-65
2022/03/06 02:02:18;;;;;;;19.42;9.15;;;;;;;-3.35;63.62;96748.19;2067681;28;20226;-65
2022/03/06 02:03:20;;;;;;;19.00;9.00;;;;;;;-3.30;63.64;96746.41;2069206;28;20302;-65
2022/03/06 02:04:22;;;;;;;20.70;10.15;;;;;;;-3.34;63.40;96754.16;2070920;28;20705;-65
2022/03/06 02:05:24;;;;;;;18.33;9.07;;;;;;;-3.34;63.57;96752.44;2069366;28;20219;-65
2022/03/06 02:06:26;;;;;;;20.08;9.85;;;;;;;-3.20;63.02;96755.69;2067880;28;20556;-65
2022/03/06 02:07:27;;;;;;;16.83;9.50;;;;;;;-3.29;62.92;96732.75;2067584;28;20941;-65
2022/03/06 02:08:29;;;;;;;20.55;9.10;;;;;;;-3.21;63.39;96754.00;2069538;28;20529;-65
2022/03/06 02:09:30;;;;;;;23.02;10.20;;;;;;;-3.13;63.00;96753.06;2069428;28;20252;-65
2022/03/06 02:10:33;;;;;;;19.48;8.93;;;;;;;-3.20;63.05;96757.41;2068372;28;20256;-65
2022/03/06 02:11:35;;;;;;;26.77;9.50;;;;;;;-3.24;63.18;96751.47;2069137;28;20202;-65
2022/03/06 02:12:37;;;;;;;21.73;9.52;;;;;;;-3.26;63.27;96752.34;2068934;28;20198;-65
2022/03/06 02:13:38;;;;;;;19.10;9.00;;;;;;;-3.27;63.43;96750.69;2066325;28;20194;-66
2022/03/06 02:14:40;;;;;;;21.58;10.45;;;;;;;-3.27;63.28;96750.69;2069638;28;20206;-65
2022/03/06 02:15:44;;;;;;;22.05;10.18;;;;;;;-3.29;63.27;96747.25;2069290;28;20854;-65
2022/03/06 02:16:45;;;;;;;23.05;10.30;;;;;;;-3.29;63.70;96748.13;2064047;28;20194;-65
2022/03/06 02:17:47;;;;;;;19.00;9.38;;;;;;;-3.36;63.71;96743.94;2067518;28;20732;-65
2022/03/06 02:18:48;;;;;;;21.88;9.23;;;;;;;-3.35;63.61;96740.50;2067133;28;20672;-65
2022/03/06 02:20:04;;;;;;;17.48;8.77;;;;;;;-3.36;63.43;96746.50;2070532;28;20206;-65
2022/03/06 02:21:10;;;;;;;20.13;9.30;;;;;;;-3.32;63.73;96749.88;2069104;28;20205;-65
2022/03/06 02:22:12;;;;;;;23.45;9.75;;;;;;;-3.39;63.44;96744.81;2066465;28;20206;-65
2022/03/06 02:23:13;;;;;;;20.65;9.43;;;;;;;-3.31;63.41;96746.44;2067794;28;20527;-65
2022/03/06 02:24:15;;;;;;;23.67;10.68;;;;;;;-3.38;63.83;96749.06;2067783;28;20198;-65
2022/03/06 02:25:21;;;;;;;21.23;10.98;;;;;;;-3.55;64.08;96727.06;2067075;28;20226;-65
2022/03/06 02:26:22;;;;;;;21.35;9.50;;;;;;;-3.47;64.41;96746.63;2068540;28;20649;-64
2022/03/06 02:27:24;;;;;;;24.92;11.20;;;;;;;-3.64;64.54;96730.59;2067339;28;20217;-65
2022/03/06 02:28:26;;;;;;;20.95;10.20;;;;;;;-3.54;64.61;96747.53;2067373;28;20564;-65
2022/03/06 02:29:27;;;;;;;17.55;9.43;;;;;;;-3.65;64.95;96744.25;2069078;28;20195;-65
2022/03/06 02:30:31;;;;;;;19.73;9.80;;;;;;;-3.68;65.43;96745.13;2066503;28;20242;-65
2022/03/06 02:31:33;;;;;;;20.52;10.05;;;;;;;-3.77;65.54;96750.34;2067671;28;20206;-65
2022/03/06 02:32:35;;;;;;;25.30;11.52;;;;;;;-3.79;65.68;96741.81;2066090;28;20286;-65
2022/03/06 02:33:37;;;;;;;26.13;10.80;;;;;;;-3.92;66.17;96746.22;2068757;28;20198;-65
2022/03/06 02:34:40;;;;;;;19.98;10.00;;;;;;;-3.77;65.68;96746.06;2069232;28;20216;-62
2022/03/06 02:35:42;;;;;;;19.55;9.23;;;;;;;-3.67;65.18;96744.25;2070809;28;20198;-65
2022/03/06 02:36:44;;;;;;;16.60;9.25;;;;;;;-3.71;65.00;96747.72;2071010;28;20789;-65
2022/03/06 02:37:46;;;;;;;22.17;9.85;;;;;;;-3.80;65.19;96745.28;2069370;28;20198;-65
2022/03/06 02:38:49;;;;;;;22.60;10.60;;;;;;;-3.83;65.27;96748.69;2068623;28;20700;-65
2022/03/06 02:39:50;;;;;;;18.88;8.75;;;;;;;-3.80;65.38;96750.38;2069260;28;20202;-65
2022/03/06 02:40:53;;;;;;;21.60;9.32;;;;;;;-3.78;65.30;96746.94;2070506;28;20202;-65
2022/03/06 02:41:54;;;;;;;20.08;10.45;;;;;;;-3.86;65.65;96748.72;2065583;28;20209;-66
2022/03/06 02:42:56;;;;;;;20.67;8.45;;;;;;;-3.86;65.61;96751.28;2069514;28;20205;-65
2022/03/06 02:43:57;;;;;;;22.95;9.60;;;;;;;-3.89;65.77;96746.19;2069287;28;20252;-65
2022/03/06 02:45:08;;;;;;;18.90;9.63;;;;;;;-3.96;65.92;96747.09;2068496;28;20230;-65
2022/03/06 02:46:09;;;;;;;21.30;10.18;;;;;;;-3.94;65.81;96741.97;2068227;28;20208;-65
2022/03/06 02:47:11;;;;;;;17.27;9.85;;;;;;;-3.89;65.90;96751.31;2067400;28;20240;-65
2022/03/06 02:48:12;;;;;;;21.40;10.05;;;;;;;-3.98;65.98;96747.13;2070586;28;20197;-65
2022/03/06 02:49:19;;;;;;;18.95;8.75;;;;;;;-3.94;66.04;96747.09;2065996;28;20198;-65
2022/03/06 02:50:23;;;;;;;20.85;9.88;;;;;;;-4.07;66.23;96731.84;2066079;28;20230;-65
2022/03/06 02:51:25;;;;;;;22.75;9.13;;;;;;;-3.91;65.69;96747.91;2068048;28;20197;-65
2022/03/06 02:52:26;;;;;;;19.90;9.93;;;;;;;-3.88;65.69;96747.91;2067773;28;20740;-65
2022/03/06 02:53:28;;;;;;;24.10;10.65;;;;;;;-3.68;65.32;96750.25;2068914;28;20202;-65
2022/03/06 02:54:29;;;;;;;19.67;9.65;;;;;;;-3.85;65.65;96745.28;2067388;28;20209;-65
2022/03/06 02:55:31;;;;;;;24.08;9.65;;;;;;;-3.89;65.81;96742.78;2068633;28;20229;-65
2022/03/06 02:56:34;;;;;;;23.25;9.68;;;;;;;-3.86;65.95;96746.16;2068818;28;20779;-65
2022/03/06 02:57:35;;;;;;;20.08;10.63;;;;;;;-3.85;66.70;96757.25;2067610;28;20197;-65
2022/03/06 02:58:37;;;;;;;17.65;9.00;;;;;;;-3.79;66.40;96752.06;2069408;28;20559;-65
2022/03/06 02:59:39;;;;;;;18.90;9.50;;;;;;;-3.67;66.06;96753.66;2068325;28;20202;-65
2022/03/06 03:00:41;;;;;;;24.38;9.38;;;;;;;-3.55;65.78;96750.13;2069345;28;20233;-64
2022/03/06 03:01:43;;;;;;;21.55;9.70;;;;;;;-3.60;65.81;96755.31;2068537;28;20198;-65
2022/03/06 03:02:46;;;;;;;26.80;9.57;;;;;;;-3.54;65.71;96749.28;2068721;28;20552;-65
2022/03/06 03:03:47;;;;;;;20.55;9.75;;;;;;;-3.53;65.65;96754.34;2068157;28;20208;-65
2022/03/06 03:04:49;;;;;;;21.52;10.18;;;;;;;-3.52;65.87;96748.38;2069108;28;20289;-65
2022/03/06 03:05:50;;;;;;;21.58;10.65;;;;;;;-3.59;66.16;96752.72;2068864;28;20214;-65
2022/03/06 03:06:52;;;;;;;24.10;10.10;;;;;;;-3.62;66.30;96741.66;2067815;28;20699;-65
2022/03/06 03:07:54;;;;;;;28.10;10.60;;;;;;;-3.56;66.27;96748.44;2068455;28;20653;-65
2022/03/06 03:08:56;;;;;;;24.33;9.77;;;;;;;-3.52;66.22;96750.09;2068209;28;20249;-64
2022/03/06 03:09:57;;;;;;;21.83;10.23;;;;;;;-3.53;66.01;96759.47;2066132;28;20545;-65
2022/03/06 03:10:59;;;;;;;24.20;9.43;;;;;;;-3.52;65.76;96750.94;2065658;28;20205;-65
2022/03/06 03:12:02;;;;;;;19.13;10.25;;;;;;;-3.57;66.29;96747.56;2065492;28;20393;-65
2022/03/06 03:13:04;;;;;;;19.27;9.70;;;;;;;-3.63;66.32;96761.28;2066055;28;20203;-65
2022/03/06 03:14:06;;;;;;;15.80;8.32;;;;;;;-3.58;66.21;96759.53;2069020;28;20195;-65
2022/03/06 03:15:10;;;;;;;22.77;10.20;;;;;;;-3.55;66.35;96752.69;2070948;28;20218;-65
2022/03/06 03:16:11;;;;;;;20.75;8.55;;;;;;;-3.58;66.42;96761.25;2067049;28;20287;-65
2022/03/06 03:17:13;;;;;;;22.58;10.00;;;;;;;-3.60;66.71;96768.09;2066585;28;20203;-65
2022/03/06 03:18:15;;;;;;;18.27;8.88;;;;;;;-3.62;66.43;96759.59;2067999;28;20199;-65
2022/03/06 03:19:20;;;;;;;25.73;10.02;;;;;;;-3.77;66.74;96758.84;2068012;28;20190;-65
2022/03/06 03:20:22;;;;;;;20.20;9.65;;;;;;;-3.74;67.07;96765.69;2068205;28;20218;-65
2022/03/06 03:21:23;;;;;;;24.00;10.43;;;;;;;-3.69;66.67;96761.34;2069526;28;20205;-65
2022/03/06 03:22:25;;;;;;;23.25;10.10;;;;;;;-3.63;66.62;96758.72;2065513;28;20197;-64
2022/03/06 03:23:27;;;;;;;17.90;10.05;;;;;;;-3.71;66.76;96760.50;2065712;28;20706;-65
2022/03/06 03:24:29;;;;;;;17.85;9.45;;;;;;;-3.60;66.73;96747.63;2069209;28;20622;-65
2022/03/06 03:25:30;;;;;;;23.48;11.02;;;;;;;-3.53;66.18;96754.34;2066238;28;20245;-65
2022/03/06 03:26:32;;;;;;;15.90;8.50;;;;;;;-3.55;66.51;96756.06;2068325;28;20190;-65
2022/03/06 03:27:34;;;;;;;19.55;9.48;;;;;;;-3.58;66.80;96743.31;2068829;28;20225;-65
2022/03/06 03:28:35;;;;;;;26.48;11.25;;;;;;;-3.49;66.34;96750.03;2068986;28;20396;-65
2022/03/06 03:29:37;;;;;;;18.27;9.75;;;;;;;-3.54;66.63;96755.22;2068781;28;20195;-65
2022/03/06 03:30:38;;;;;;;19.52;9.98;;;;;;;-3.53;66.77;96754.34;2067804;28;20218;-65
2022/03/06 03:31:40;;;;;;;19.23;8.40;;;;;;;-3.41;66.36;96758.50;2065984;28;20203;-65
2022/03/06 03:32:41;;;;;;;20.88;9.43;;;;;;;-3.37;66.15;96762.75;2072338;28;20640;-64
2022/03/06 03:33:43;;;;;;;23.42;9.18;;;;;;;-3.38;66.43;96753.34;2071819;28;20198;-65
2022/03/06 03:34:44;;;;;;;21.95;9.30;;;;;;;-3.40;66.27;96755.91;2070713;28;20598;-65
2022/03/06 03:35:46;;;;;;;19.85;9.30;;;;;;;-3.45;66.66;96759.38;2068407;28;20190;-65
2022/03/06 03:36:47;;;;;;;19.60;9.18;;;;;;;-3.39;66.30;96761.91;2068501;28;20204;-65
2022/03/06 03:37:49;;;;;;;18.10;8.82;;;;;;;-3.41;66.62;96759.34;2069134;28;20198;-65
2022/03/06 03:38:50;;;;;;;20.90;9.88;;;;;;;-3.32;66.25;96757.56;2068698;28;20204;-65
2022/03/06 03:39:52;;;;;;;20.63;10.00;;;;;;;-3.32;66.32;96758.38;2068232;28;20657;-65
2022/03/06 03:40:53;;;;;;;22.27;10.35;;;;;;;-3.32;66.31;96757.56;2070814;28;20206;-65
2022/03/06 03:41:55;;;;;;;23.10;10.30;;;;;;;-3.33;66.52;96759.28;2068100;28;20233;-65
2022/03/06 03:42:56;;;;;;;20.73;9.30;;;;;;;-3.28;66.07;96761.78;2067906;28;20205;-65
2022/03/06 03:43:58;;;;;;;18.38;9.93;;;;;;;-3.35;66.32;96763.56;2068109;28;20217;-65
2022/03/06 03:44:59;;;;;;;21.77;9.20;;;;;;;-3.45;66.40;96761.94;2067226;28;20563;-65
2022/03/06 03:46:01;;;;;;;23.17;10.85;;;;;;;-3.64;66.83;96761.31;2068613;28;20202;-65
2022/03/06 03:47:03;;;;;;;19.17;9.77;;;;;;;-3.77;67.09;96756.28;2064911;28;20203;-65
2022/03/06 03:48:04;;;;;;;26.55;9.77;;;;;;;-3.72;67.23;96760.53;2065985;28;20194;-65
2022/03/06 03:49:06;;;;;;;19.13;9.23;;;;;;;-3.73;67.46;96761.41;2070233;28;20213;-65
2022/03/06 03:50:08;;;;;;;18.15;8.90;;;;;;;-3.69;67.62;96768.19;2070156;28;20222;-65
2022/03/06 03:51:10;;;;;;;22.60;10.77;;;;;;;-3.66;67.63;96766.44;2069273;28;20220;-66
2022/03/06 03:52:12;;;;;;;17.10;9.23;;;;;;;-3.63;68.05;96768.97;2065304;28;20206;-65
2022/03/06 03:53:13;;;;;;;20.70;9.68;;;;;;;-3.63;67.53;96773.25;2067363;28;20201;-65
2022/03/06 03:54:15;;;;;;;18.10;9.70;;;;;;;-3.69;67.61;96775.88;2071257;28;20196;-65
2022/03/06 03:55:16;;;;;;;19.83;10.10;;;;;;;-3.67;67.77;96780.09;2069699;28;20225;-65
2022/03/06 03:56:18;;;;;;;21.90;11.00;;;;;;;-3.70;67.59;96779.31;2070567;28;20187;-65
2022/03/06 03:57:23;;;;;;;18.02;9.30;;;;;;;-3.60;67.77;96780.91;2067016;28;20202;-64
2022/03/06 03:58:24;;;;;;;19.80;9.25;;;;;;;-3.53;67.44;96779.94;2065863;28;20197;-65
2022/03/06 03:59:26;;;;;;;22.38;10.13;;;;;;;-3.49;67.22;96786.78;2068817;28;20199;-66
2022/03/06 04:00:27;;;;;;;16.85;8.55;;;;;;;-3.42;67.21;96785.81;2068434;28;20229;-65
2022/03/06 04:01:29;;;;;;;23.17;11.05;;;;;;;-3.42;67.42;96778.13;2068589;28;20198;-65
2022/03/06 04:02:32;;;;;;;22.58;9.38;;;;;;;-3.42;67.11;96778.13;2067005;28;20576;-65
2022/03/06 04:03:33;;;;;;;19.17;9.50;;;;;;;-3.39;67.26;96779.84;2066790;28;20545;-65
2022/03/06 04:04:35;;;;;;;21.35;10.75;;;;;;;-3.35;66.84;96778.94;2067621;28;21080;-65
2022/03/06 04:05:37;;;;;;;19.75;9.93;;;;;;;-3.42;67.41;96788.38;2067496;28;20715;-65
2022/03/06 04:06:38;;;;;;;22.05;10.15;;;;;;;-3.35;67.09;96784.06;2068914;28;20719;-65
2022/03/06 04:07:40;;;;;;;19.17;9.77;;;;;;;-3.58;66.98;96790.25;2064144;28;20281;-65
2022/03/06 04:08:41;;;;;;;16.95;8.63;;;;;;;-3.72;67.79;96791.25;2068019;28;20209;-65
2022/03/06 04:09:43;;;;;;;21.92;10.98;;;;;;;-3.82;67.55;96786.22;2066699;28;20226;-65
2022/03/06 04:10:44;;;;;;;19.80;8.90;;;;;;;-3.80;67.81;96787.06;2067935;28;20209;-65
2022/03/06 04:11:46;;;;;;;21.60;9.20;;;;;;;-3.78;67.56;96789.63;2068398;28;20220;-65
2022/03/06 04:12:47;;;;;;;22.38;9.48;;;;;;;-3.85;67.71;96796.47;2068019;28;20205;-65
2022/03/06 04:13:49;;;;;;;20.65;9.93;;;;;;;-3.89;67.95;96802.50;2070357;28;20201;-65
2022/03/06 04:14:50;;;;;;;24.90;9.63;;;;;;;-3.86;68.34;96789.69;2070296;28;20194;-65
2022/03/06 04:15:52;;;;;;;22.30;10.98;;;;;;;-3.82;68.65;96796.47;2068036;28;20214;-58
2022/03/06 04:16:54;;;;;;;21.90;10.27;;;;;;;-3.86;68.49;96796.47;2069975;28;20252;-59
2022/03/06 04:17:56;;;;;;;21.15;9.60;;;;;;;-3.95;68.53;96801.69;2068989;28;20197;-58
2022/03/06 04:18:57;;;;;;;21.98;11.10;;;;;;;-3.95;68.66;96802.53;2067940;28;20198;-58
2022/03/06 04:19:58;;;;;;;19.08;9.38;;;;;;;-3.87;68.79;96795.66;2066288;28;20230;-58
2022/03/06 04:21:00;;;;;;;21.95;9.90;;;;;;;-3.71;67.86;96795.50;2068204;28;20205;-59
2022/03/06 04:22:01;;;;;;;20.60;9.52;;;;;;;-3.66;68.42;96796.31;2068166;28;20818;-58
2022/03/06 04:23:03;;;;;;;20.00;9.43;;;;;;;-3.61;68.43;96795.44;2066036;28;20527;-58
2022/03/06 04:24:05;;;;;;;27.92;10.40;;;;;;;-3.49;68.01;96797.00;2068023;28;20203;-58
2022/03/06 04:25:07;;;;;;;21.60;9.75;;;;;;;-3.60;67.93;96793.69;2067598;28;20271;-58
2022/03/06 04:26:08;;;;;;;20.10;10.18;;;;;;;-3.78;68.72;96803.25;2067401;28;20202;-58
2022/03/06 04:27:09;;;;;;;20.73;9.75;;;;;;;-3.78;68.71;96805.81;2067820;28;20642;-59
2022/03/06 04:28:11;;;;;;;21.42;10.68;;;;;;;-3.81;69.20;96802.44;2067331;28;20198;-58
2022/03/06 04:29:12;;;;;;;24.48;11.18;;;;;;;-3.80;69.08;96802.41;2067529;28;20201;-58
2022/03/06 04:30:14;;;;;;;17.42;8.70;;;;;;;-3.79;69.08;96804.09;2066699;28;20566;-58
2022/03/06 04:31:15;;;;;;;19.65;9.10;;;;;;;-3.77;69.11;96804.94;2066562;28;20206;-58
2022/03/06 04:32:17;;;;;;;22.88;10.45;;;;;;;-3.83;69.36;96811.81;2066589;28;20960;-59
2022/03/06 04:33:18;;;;;;;24.77;10.50;;;;;;;-3.88;69.30;96804.19;2068226;28;20205;-58
2022/03/06 04:34:20;;;;;;;20.30;10.05;;;;;;;-3.98;69.68;96805.13;2071411;28;20216;-58
2022/03/06 04:35:21;;;;;;;22.30;9.70;;;;;;;-3.90;69.60;96805.94;2071505;28;20228;-58
2022/03/06 04:36:23;;;;;;;19.88;9.85;;;;;;;-3.79;69.30;96804.09;2068825;28;20193;-59
2022/03/06 04:37:25;;;;;;;25.92;10.70;;;;;;;-3.75;69.33;96804.09;2070556;28;20190;-58
2022/03/06 04:38:26;;;;;;;21.17;9.50;;;;;;;-3.72;69.10;96809.16;2068907;28;20194;-59
2022/03/06 04:39:28;;;;;;;20.60;10.23;;;;;;;-3.74;69.45;96805.75;2072632;28;20285;-58
2022/03/06 04:40:30;;;;;;;20.75;10.40;;;;;;;-3.72;69.11;96802.34;2070664;28;20222;-58
2022/03/06 04:41:31;;;;;;;24.13;10.38;;;;;;;-3.69;68.76;96814.25;2069882;28;20499;-58
2022/03/06 04:42:33;;;;;;;21.63;10.02;;;;;;;-3.72;69.07;96801.47;2068850;28;20194;-59
2022/03/06 04:43:34;;;;;;;18.83;10.20;;;;;;;-3.82;69.29;96806.69;2070415;28;20564;-58
2022/03/06 04:44:36;;;;;;;18.63;9.18;;;;;;;-3.76;69.50;96803.25;2068996;28;20206;-58
2022/03/06 04:45:37;;;;;;;21.77;10.30;;;;;;;-3.74;69.36;96804.06;2067238;28;20272;-58
2022/03/06 04:46:39;;;;;;;23.45;9.70;;;;;;;-3.73;69.40;96808.31;2067085;28;20211;-58